Impacts TAF Board
For situational awareness. Not to be used for flight planning purposes.
IDs:

KGWO - Greenwood/Leflore Ar, MS, US

Issued at 1731 UTC 15 Oct 2018
Updated at 2306 UTC 15 Oct 2018
Potential Impact None Slight Moderate High
Time<<16/12Z 16/13Z 16/14Z 16/15Z 16/16Z 16/17Z 16/18Z 16/19Z 16/20Z 16/21Z 16/22Z 16/23Z 17/00Z>>
Type PRVL PRVL PRVL PRVL PRVL PRVL
VIS >6 >6 5 5 5 6
CIG 15 15 7 7 7 15
Cover OVC OVC OVC OVC OVC OVC
FltCat MVFR MVFR IFR IFR IFR MVFR
WX -- -- BR BR BR BR
WDir 10 10 20 20 20 10
WSpd 12 12 9 9 9 7
WGst -- -- -- -- -- --
Raw TAF
KGWO 151731Z 1518/1618 36012G18KT P6SM VCSH SCT008 BKN015 OVC025
  FM160000 01012KT P6SM BKN015 OVC025
  FM161400 02009KT 5SM BR OVC007
  FM161700 01007KT 6SM BR OVC015


METAR Board
Radar Display
Forecast Discussion
For situational awareness. Not to be used for flight planning purposes.